sensor_id;sensor_type;location;lat;lon;timestamp;P1;durP1;ratioP1;P2;durP2;ratioP2
48685;SDS011;34485;51.536;3.816;2023-08-01T00:01:23;8.60;;;3.33;;
48685;SDS011;34485;51.536;3.816;2023-08-01T00:03:48;15.60;;;4.40;;
48685;SDS011;34485;51.536;3.816;2023-08-01T00:06:14;12.13;;;4.28;;
48685;SDS011;34485;51.536;3.816;2023-08-01T00:08:40;13.70;;;3.73;;
48685;SDS011;34485;51.536;3.816;2023-08-01T00:11:05;21.03;;;4.80;;
48685;SDS011;34485;51.536;3.816;2023-08-01T00:13:31;11.18;;;4.22;;
48685;SDS011;34485;51.536;3.816;2023-08-01T00:15:56;13.43;;;3.90;;
48685;SDS011;34485;51.536;3.816;2023-08-01T00:18:22;9.80;;;3.50;;
48685;SDS011;34485;51.536;3.816;2023-08-01T00:20:47;17.08;;;3.88;;
48685;SDS011;34485;51.536;3.816;2023-08-01T00:23:13;10.10;;;3.70;;
48685;SDS011;34485;51.536;3.816;2023-08-01T00:25:39;8.15;;;3.17;;
48685;SDS011;34485;51.536;3.816;2023-08-01T00:28:04;8.30;;;3.70;;
48685;SDS011;34485;51.536;3.816;2023-08-01T00:30:30;10.10;;;4.03;;
48685;SDS011;34485;51.536;3.816;2023-08-01T00:32:55;8.40;;;2.70;;
48685;SDS011;34485;51.536;3.816;2023-08-01T00:35:21;9.33;;;3.53;;
48685;SDS011;34485;51.536;3.816;2023-08-01T00:37:47;7.78;;;4.78;;
48685;SDS011;34485;51.536;3.816;2023-08-01T00:40:12;6.80;;;3.43;;
48685;SDS011;34485;51.536;3.816;2023-08-01T00:42:38;14.97;;;4.43;;
48685;SDS011;34485;51.536;3.816;2023-08-01T00:45:04;8.45;;;3.17;;
48685;SDS011;34485;51.536;3.816;2023-08-01T00:47:30;11.95;;;4.13;;
48685;SDS011;34485;51.536;3.816;2023-08-01T00:49:55;14.60;;;3.00;;
48685;SDS011;34485;51.536;3.816;2023-08-01T00:52:21;13.87;;;3.97;;
48685;SDS011;34485;51.536;3.816;2023-08-01T00:54:47;7.07;;;4.55;;
48685;SDS011;34485;51.536;3.816;2023-08-01T00:57:13;14.57;;;4.65;;
48685;SDS011;34485;51.536;3.816;2023-08-01T00:59:39;18.27;;;4.00;;
48685;SDS011;34485;51.536;3.816;2023-08-01T01:02:04;8.45;;;3.45;;
48685;SDS011;34485;51.536;3.816;2023-08-01T01:04:30;11.52;;;3.58;;
48685;SDS011;34485;51.536;3.816;2023-08-01T01:09:21;9.15;;;3.83;;
48685;SDS011;34485;51.536;3.816;2023-08-01T01:11:47;10.03;;;4.17;;
48685;SDS011;34485;51.536;3.816;2023-08-01T01:14:13;13.57;;;4.10;;
48685;SDS011;34485;51.536;3.816;2023-08-01T01:16:38;7.97;;;3.97;;
48685;SDS011;34485;51.536;3.816;2023-08-01T01:19:08;10.90;;;4.37;;
48685;SDS011;34485;51.536;3.816;2023-08-01T01:21:34;6.82;;;3.58;;
48685;SDS011;34485;51.536;3.816;2023-08-01T01:24:05;6.72;;;2.92;;
48685;SDS011;34485;51.536;3.816;2023-08-01T01:26:34;9.10;;;4.30;;
48685;SDS011;34485;51.536;3.816;2023-08-01T01:29:02;7.40;;;3.97;;
48685;SDS011;34485;51.536;3.816;2023-08-01T01:31:29;6.05;;;3.47;;
48685;SDS011;34485;51.536;3.816;2023-08-01T01:33:55;9.88;;;4.35;;
48685;SDS011;34485;51.536;3.816;2023-08-01T01:36:22;11.23;;;4.72;;
48685;SDS011;34485;51.536;3.816;2023-08-01T01:38:47;9.87;;;4.67;;
48685;SDS011;34485;51.536;3.816;2023-08-01T01:41:13;13.23;;;3.93;;
48685;SDS011;34485;51.536;3.816;2023-08-01T01:43:38;12.07;;;5.23;;
48685;SDS011;34485;51.536;3.816;2023-08-01T01:46:04;10.00;;;3.73;;
48685;SDS011;34485;51.536;3.816;2023-08-01T01:48:30;8.93;;;3.97;;
48685;SDS011;34485;51.536;3.816;2023-08-01T01:50:55;10.57;;;4.87;;
48685;SDS011;34485;51.536;3.816;2023-08-01T01:53:21;13.83;;;3.97;;
48685;SDS011;34485;51.536;3.816;2023-08-01T01:55:46;8.75;;;4.22;;
48685;SDS011;34485;51.536;3.816;2023-08-01T01:58:12;10.80;;;4.00;;
48685;SDS011;34485;51.536;3.816;2023-08-01T02:00:37;9.80;;;4.18;;
48685;SDS011;34485;51.536;3.816;2023-08-01T02:03:03;13.27;;;4.80;;
48685;SDS011;34485;51.536;3.816;2023-08-01T02:05:29;12.23;;;4.77;;
48685;SDS011;34485;51.536;3.816;2023-08-01T02:07:55;10.55;;;3.88;;
48685;SDS011;34485;51.536;3.816;2023-08-01T02:10:20;12.18;;;4.20;;
48685;SDS011;34485;51.536;3.816;2023-08-01T02:12:46;6.87;;;3.67;;
48685;SDS011;34485;51.536;3.816;2023-08-01T02:15:12;16.43;;;4.50;;
48685;SDS011;34485;51.536;3.816;2023-08-01T02:17:37;7.13;;;4.15;;
48685;SDS011;34485;51.536;3.816;2023-08-01T02:20:03;9.52;;;4.03;;
48685;SDS011;34485;51.536;3.816;2023-08-01T02:22:30;10.23;;;4.17;;
48685;SDS011;34485;51.536;3.816;2023-08-01T02:24:55;9.07;;;4.35;;
48685;SDS011;34485;51.536;3.816;2023-08-01T02:27:21;15.07;;;4.43;;
48685;SDS011;34485;51.536;3.816;2023-08-01T02:29:46;11.65;;;4.55;;
48685;SDS011;34485;51.536;3.816;2023-08-01T02:32:12;9.30;;;4.53;;
48685;SDS011;34485;51.536;3.816;2023-08-01T02:34:37;9.07;;;4.50;;
48685;SDS011;34485;51.536;3.816;2023-08-01T02:37:03;16.08;;;4.57;;
48685;SDS011;34485;51.536;3.816;2023-08-01T02:39:29;16.57;;;5.13;;
48685;SDS011;34485;51.536;3.816;2023-08-01T02:41:55;12.27;;;5.25;;
48685;SDS011;34485;51.536;3.816;2023-08-01T02:44:20;12.18;;;4.65;;
48685;SDS011;34485;51.536;3.816;2023-08-01T02:46:46;13.07;;;5.20;;
48685;SDS011;34485;51.536;3.816;2023-08-01T02:49:11;9.93;;;4.57;;
48685;SDS011;34485;51.536;3.816;2023-08-01T02:51:37;14.65;;;5.47;;
48685;SDS011;34485;51.536;3.816;2023-08-01T02:54:03;19.00;;;5.37;;
48685;SDS011;34485;51.536;3.816;2023-08-01T02:56:28;9.20;;;3.47;;
48685;SDS011;34485;51.536;3.816;2023-08-01T02:58:54;8.85;;;4.40;;
48685;SDS011;34485;51.536;3.816;2023-08-01T03:01:20;10.18;;;4.47;;
48685;SDS011;34485;51.536;3.816;2023-08-01T03:03:46;9.83;;;4.97;;
48685;SDS011;34485;51.536;3.816;2023-08-01T03:06:12;11.50;;;4.82;;
48685;SDS011;34485;51.536;3.816;2023-08-01T03:08:39;9.70;;;4.47;;
48685;SDS011;34485;51.536;3.816;2023-08-01T03:11:05;12.63;;;4.43;;
48685;SDS011;34485;51.536;3.816;2023-08-01T03:13:30;12.63;;;4.85;;
48685;SDS011;34485;51.536;3.816;2023-08-01T03:15:56;12.77;;;4.13;;
48685;SDS011;34485;51.536;3.816;2023-08-01T03:18:22;11.47;;;4.70;;
48685;SDS011;34485;51.536;3.816;2023-08-01T03:20:47;12.10;;;4.60;;
48685;SDS011;34485;51.536;3.816;2023-08-01T03:23:13;6.93;;;4.30;;
48685;SDS011;34485;51.536;3.816;2023-08-01T03:25:38;16.45;;;4.90;;
48685;SDS011;34485;51.536;3.816;2023-08-01T03:28:04;14.60;;;5.23;;
48685;SDS011;34485;51.536;3.816;2023-08-01T03:30:31;14.73;;;5.35;;
48685;SDS011;34485;51.536;3.816;2023-08-01T03:32:57;9.13;;;4.53;;
48685;SDS011;34485;51.536;3.816;2023-08-01T03:35:23;9.23;;;4.40;;
48685;SDS011;34485;51.536;3.816;2023-08-01T03:37:49;15.60;;;4.88;;
48685;SDS011;34485;51.536;3.816;2023-08-01T03:40:14;8.60;;;3.27;;
48685;SDS011;34485;51.536;3.816;2023-08-01T03:42:40;11.63;;;4.07;;
48685;SDS011;34485;51.536;3.816;2023-08-01T03:45:06;13.63;;;5.10;;
48685;SDS011;34485;51.536;3.816;2023-08-01T03:47:32;9.25;;;4.10;;
48685;SDS011;34485;51.536;3.816;2023-08-01T03:49:58;7.27;;;4.50;;
48685;SDS011;34485;51.536;3.816;2023-08-01T03:52:24;7.30;;;3.95;;
48685;SDS011;34485;51.536;3.816;2023-08-01T03:54:49;9.48;;;4.63;;
48685;SDS011;34485;51.536;3.816;2023-08-01T03:57:18;14.17;;;5.37;;
48685;SDS011;34485;51.536;3.816;2023-08-01T03:59:43;11.57;;;4.93;;
48685;SDS011;34485;51.536;3.816;2023-08-01T04:02:09;10.73;;;4.80;;
48685;SDS011;34485;51.536;3.816;2023-08-01T04:04:34;10.30;;;3.80;;
48685;SDS011;34485;51.536;3.816;2023-08-01T04:07:00;12.65;;;4.75;;
48685;SDS011;34485;51.536;3.816;2023-08-01T04:09:25;9.80;;;4.10;;
48685;SDS011;34485;51.536;3.816;2023-08-01T04:11:51;15.73;;;4.97;;
48685;SDS011;34485;51.536;3.816;2023-08-01T04:14:17;12.13;;;4.82;;
48685;SDS011;34485;51.536;3.816;2023-08-01T04:16:42;9.97;;;4.10;;
48685;SDS011;34485;51.536;3.816;2023-08-01T04:19:08;12.67;;;4.50;;
48685;SDS011;34485;51.536;3.816;2023-08-01T04:21:34;10.90;;;3.95;;
48685;SDS011;34485;51.536;3.816;2023-08-01T04:24:00;10.55;;;5.00;;
48685;SDS011;34485;51.536;3.816;2023-08-01T04:26:25;16.40;;;5.27;;
48685;SDS011;34485;51.536;3.816;2023-08-01T04:28:51;15.57;;;4.87;;
48685;SDS011;34485;51.536;3.816;2023-08-01T04:31:17;6.78;;;3.25;;
48685;SDS011;34485;51.536;3.816;2023-08-01T04:33:43;11.07;;;4.73;;
48685;SDS011;34485;51.536;3.816;2023-08-01T04:36:08;16.88;;;5.45;;
48685;SDS011;34485;51.536;3.816;2023-08-01T04:38:34;19.27;;;4.60;;
48685;SDS011;34485;51.536;3.816;2023-08-01T04:40:59;12.00;;;4.82;;
48685;SDS011;34485;51.536;3.816;2023-08-01T04:43:25;13.60;;;4.40;;
48685;SDS011;34485;51.536;3.816;2023-08-01T04:45:50;11.57;;;3.63;;
48685;SDS011;34485;51.536;3.816;2023-08-01T04:48:16;10.07;;;3.58;;
48685;SDS011;34485;51.536;3.816;2023-08-01T04:50:41;8.23;;;4.40;;
48685;SDS011;34485;51.536;3.816;2023-08-01T04:53:07;7.87;;;4.67;;
48685;SDS011;34485;51.536;3.816;2023-08-01T04:55:33;12.03;;;4.00;;
48685;SDS011;34485;51.536;3.816;2023-08-01T04:57:58;15.97;;;4.67;;
48685;SDS011;34485;51.536;3.816;2023-08-01T05:00:24;7.90;;;3.63;;
48685;SDS011;34485;51.536;3.816;2023-08-01T05:02:50;9.50;;;3.60;;
48685;SDS011;34485;51.536;3.816;2023-08-01T05:05:15;10.77;;;3.90;;
48685;SDS011;34485;51.536;3.816;2023-08-01T05:07:41;9.00;;;3.90;;
48685;SDS011;34485;51.536;3.816;2023-08-01T05:10:07;13.98;;;4.95;;
48685;SDS011;34485;51.536;3.816;2023-08-01T05:12:33;9.68;;;4.93;;
48685;SDS011;34485;51.536;3.816;2023-08-01T05:14:58;10.17;;;4.47;;
48685;SDS011;34485;51.536;3.816;2023-08-01T05:17:24;14.87;;;3.67;;
48685;SDS011;34485;51.536;3.816;2023-08-01T05:19:50;10.73;;;4.35;;
48685;SDS011;34485;51.536;3.816;2023-08-01T05:22:15;10.13;;;4.50;;
48685;SDS011;34485;51.536;3.816;2023-08-01T05:24:41;13.10;;;5.30;;
48685;SDS011;34485;51.536;3.816;2023-08-01T05:27:06;12.17;;;4.47;;
48685;SDS011;34485;51.536;3.816;2023-08-01T05:29:32;9.43;;;3.77;;
48685;SDS011;34485;51.536;3.816;2023-08-01T05:31:58;6.65;;;3.40;;
48685;SDS011;34485;51.536;3.816;2023-08-01T05:34:23;11.27;;;3.33;;
48685;SDS011;34485;51.536;3.816;2023-08-01T05:36:49;12.50;;;4.68;;
48685;SDS011;34485;51.536;3.816;2023-08-01T05:39:15;7.78;;;3.67;;
48685;SDS011;34485;51.536;3.816;2023-08-01T05:41:41;8.77;;;3.60;;
48685;SDS011;34485;51.536;3.816;2023-08-01T05:44:07;11.10;;;4.80;;
48685;SDS011;34485;51.536;3.816;2023-08-01T05:46:33;10.53;;;4.17;;
48685;SDS011;34485;51.536;3.816;2023-08-01T05:48:59;7.32;;;3.65;;
48685;SDS011;34485;51.536;3.816;2023-08-01T05:51:24;14.20;;;4.53;;
48685;SDS011;34485;51.536;3.816;2023-08-01T05:53:50;9.88;;;3.95;;
48685;SDS011;34485;51.536;3.816;2023-08-01T05:56:16;12.30;;;3.77;;
48685;SDS011;34485;51.536;3.816;2023-08-01T05:58:41;7.28;;;4.40;;
48685;SDS011;34485;51.536;3.816;2023-08-01T06:01:09;9.67;;;3.40;;
48685;SDS011;34485;51.536;3.816;2023-08-01T06:03:36;7.53;;;3.70;;
48685;SDS011;34485;51.536;3.816;2023-08-01T06:06:02;10.57;;;3.42;;
48685;SDS011;34485;51.536;3.816;2023-08-01T06:08:29;7.82;;;4.00;;
48685;SDS011;34485;51.536;3.816;2023-08-01T06:10:54;9.53;;;3.83;;
48685;SDS011;34485;51.536;3.816;2023-08-01T06:13:20;15.60;;;4.40;;
48685;SDS011;34485;51.536;3.816;2023-08-01T06:15:45;17.30;;;4.65;;
48685;SDS011;34485;51.536;3.816;2023-08-01T06:18:12;8.20;;;3.87;;
48685;SDS011;34485;51.536;3.816;2023-08-01T06:20:38;9.85;;;3.33;;
48685;SDS011;34485;51.536;3.816;2023-08-01T06:23:04;10.45;;;3.50;;
48685;SDS011;34485;51.536;3.816;2023-08-01T06:25:30;12.53;;;5.07;;
48685;SDS011;34485;51.536;3.816;2023-08-01T06:27:55;8.10;;;3.58;;
48685;SDS011;34485;51.536;3.816;2023-08-01T06:30:21;12.47;;;3.70;;
48685;SDS011;34485;51.536;3.816;2023-08-01T06:32:46;8.67;;;3.63;;
48685;SDS011;34485;51.536;3.816;2023-08-01T06:35:12;8.85;;;4.30;;
48685;SDS011;34485;51.536;3.816;2023-08-01T06:37:38;8.27;;;4.27;;
48685;SDS011;34485;51.536;3.816;2023-08-01T06:40:03;14.20;;;3.25;;
48685;SDS011;34485;51.536;3.816;2023-08-01T06:42:29;12.00;;;3.60;;
48685;SDS011;34485;51.536;3.816;2023-08-01T06:44:55;9.52;;;2.60;;
48685;SDS011;34485;51.536;3.816;2023-08-01T06:47:21;16.80;;;3.60;;
48685;SDS011;34485;51.536;3.816;2023-08-01T06:49:46;6.35;;;3.60;;
48685;SDS011;34485;51.536;3.816;2023-08-01T06:52:12;11.43;;;3.83;;
48685;SDS011;34485;51.536;3.816;2023-08-01T06:54:37;8.87;;;3.97;;
48685;SDS011;34485;51.536;3.816;2023-08-01T06:57:04;9.30;;;3.33;;
48685;SDS011;34485;51.536;3.816;2023-08-01T06:59:29;15.27;;;4.32;;
48685;SDS011;34485;51.536;3.816;2023-08-01T07:01:55;9.93;;;3.60;;
48685;SDS011;34485;51.536;3.816;2023-08-01T07:04:21;8.85;;;4.10;;
48685;SDS011;34485;51.536;3.816;2023-08-01T07:06:46;9.90;;;4.03;;
48685;SDS011;34485;51.536;3.816;2023-08-01T07:09:12;5.57;;;3.28;;
48685;SDS011;34485;51.536;3.816;2023-08-01T07:11:37;7.67;;;3.20;;
48685;SDS011;34485;51.536;3.816;2023-08-01T07:14:03;14.63;;;3.30;;
48685;SDS011;34485;51.536;3.816;2023-08-01T07:16:28;11.30;;;3.72;;
48685;SDS011;34485;51.536;3.816;2023-08-01T07:18:55;6.60;;;3.17;;
48685;SDS011;34485;51.536;3.816;2023-08-01T07:21:21;7.27;;;3.83;;
48685;SDS011;34485;51.536;3.816;2023-08-01T07:23:46;10.20;;;3.43;;
48685;SDS011;34485;51.536;3.816;2023-08-01T07:26:13;9.25;;;3.97;;
48685;SDS011;34485;51.536;3.816;2023-08-01T07:28:42;12.30;;;3.65;;
48685;SDS011;34485;51.536;3.816;2023-08-01T07:31:08;6.32;;;3.60;;
48685;SDS011;34485;51.536;3.816;2023-08-01T07:33:34;8.30;;;3.70;;
48685;SDS011;34485;51.536;3.816;2023-08-01T07:36:00;8.32;;;3.13;;
48685;SDS011;34485;51.536;3.816;2023-08-01T07:38:26;12.90;;;3.83;;
48685;SDS011;34485;51.536;3.816;2023-08-01T07:40:55;11.35;;;3.60;;
48685;SDS011;34485;51.536;3.816;2023-08-01T07:43:21;12.40;;;3.20;;
48685;SDS011;34485;51.536;3.816;2023-08-01T07:45:46;11.57;;;3.27;;
48685;SDS011;34485;51.536;3.816;2023-08-01T07:48:15;9.55;;;3.22;;
48685;SDS011;34485;51.536;3.816;2023-08-01T07:50:40;9.80;;;2.78;;
48685;SDS011;34485;51.536;3.816;2023-08-01T07:53:06;6.27;;;2.93;;
48685;SDS011;34485;51.536;3.816;2023-08-01T07:55:34;8.30;;;3.03;;
48685;SDS011;34485;51.536;3.816;2023-08-01T07:58:00;8.87;;;2.70;;
48685;SDS011;34485;51.536;3.816;2023-08-01T08:00:26;7.00;;;2.95;;
48685;SDS011;34485;51.536;3.816;2023-08-01T08:02:53;9.10;;;3.00;;
48685;SDS011;34485;51.536;3.816;2023-08-01T08:05:19;7.43;;;3.30;;
48685;SDS011;34485;51.536;3.816;2023-08-01T08:07:44;7.82;;;2.85;;
48685;SDS011;34485;51.536;3.816;2023-08-01T08:10:10;5.67;;;2.77;;
48685;SDS011;34485;51.536;3.816;2023-08-01T08:12:35;5.28;;;2.45;;
48685;SDS011;34485;51.536;3.816;2023-08-01T08:15:01;7.17;;;3.13;;
48685;SDS011;34485;51.536;3.816;2023-08-01T08:17:27;6.70;;;3.17;;
48685;SDS011;34485;51.536;3.816;2023-08-01T08:19:53;6.10;;;3.43;;
48685;SDS011;34485;51.536;3.816;2023-08-01T08:22:18;12.85;;;3.67;;
48685;SDS011;34485;51.536;3.816;2023-08-01T08:24:44;7.10;;;3.40;;
48685;SDS011;34485;51.536;3.816;2023-08-01T08:27:10;7.22;;;3.13;;
48685;SDS011;34485;51.536;3.816;2023-08-01T08:29:35;5.30;;;3.10;;
48685;SDS011;34485;51.536;3.816;2023-08-01T08:32:03;6.05;;;3.10;;
48685;SDS011;34485;51.536;3.816;2023-08-01T08:34:28;7.13;;;3.15;;
48685;SDS011;34485;51.536;3.816;2023-08-01T08:36:54;5.70;;;2.80;;
48685;SDS011;34485;51.536;3.816;2023-08-01T08:39:20;10.15;;;3.50;;
48685;SDS011;34485;51.536;3.816;2023-08-01T08:41:46;6.43;;;3.13;;
48685;SDS011;34485;51.536;3.816;2023-08-01T08:44:14;7.57;;;3.63;;
48685;SDS011;34485;51.536;3.816;2023-08-01T08:46:42;8.70;;;3.00;;
48685;SDS011;34485;51.536;3.816;2023-08-01T08:49:09;6.15;;;2.92;;
48685;SDS011;34485;51.536;3.816;2023-08-01T08:51:35;7.55;;;2.80;;
48685;SDS011;34485;51.536;3.816;2023-08-01T08:54:03;8.25;;;2.97;;
48685;SDS011;34485;51.536;3.816;2023-08-01T08:56:29;7.03;;;2.90;;
48685;SDS011;34485;51.536;3.816;2023-08-01T08:58:56;4.00;;;3.10;;
48685;SDS011;34485;51.536;3.816;2023-08-01T09:01:22;6.00;;;3.05;;
48685;SDS011;34485;51.536;3.816;2023-08-01T09:03:48;6.80;;;3.45;;
48685;SDS011;34485;51.536;3.816;2023-08-01T09:06:17;5.50;;;2.70;;
48685;SDS011;34485;51.536;3.816;2023-08-01T09:08:55;5.50;;;2.92;;
48685;SDS011;34485;51.536;3.816;2023-08-01T09:11:26;8.88;;;3.47;;
48685;SDS011;34485;51.536;3.816;2023-08-01T09:13:52;6.07;;;3.43;;
48685;SDS011;34485;51.536;3.816;2023-08-01T09:16:18;4.50;;;2.72;;
48685;SDS011;34485;51.536;3.816;2023-08-01T09:18:51;7.18;;;3.25;;
48685;SDS011;34485;51.536;3.816;2023-08-01T09:21:17;12.40;;;3.17;;
48685;SDS011;34485;51.536;3.816;2023-08-01T09:23:46;7.07;;;2.90;;
48685;SDS011;34485;51.536;3.816;2023-08-01T09:26:16;6.90;;;3.45;;
48685;SDS011;34485;51.536;3.816;2023-08-01T09:28:42;5.13;;;2.67;;
48685;SDS011;34485;51.536;3.816;2023-08-01T09:31:09;5.30;;;2.60;;
48685;SDS011;34485;51.536;3.816;2023-08-01T09:33:39;5.65;;;3.22;;
48685;SDS011;34485;51.536;3.816;2023-08-01T09:36:06;6.78;;;3.00;;
48685;SDS011;34485;51.536;3.816;2023-08-01T09:38:36;4.75;;;3.17;;
48685;SDS011;34485;51.536;3.816;2023-08-01T09:41:03;8.37;;;3.27;;
48685;SDS011;34485;51.536;3.816;2023-08-01T09:43:36;5.22;;;2.67;;
48685;SDS011;34485;51.536;3.816;2023-08-01T09:46:02;4.47;;;2.72;;
48685;SDS011;34485;51.536;3.816;2023-08-01T09:48:31;4.50;;;2.75;;
48685;SDS011;34485;51.536;3.816;2023-08-01T09:51:08;6.30;;;2.80;;
48685;SDS011;34485;51.536;3.816;2023-08-01T09:53:56;4.03;;;2.67;;
48685;SDS011;34485;51.536;3.816;2023-08-01T09:56:22;4.97;;;2.22;;
48685;SDS011;34485;51.536;3.816;2023-08-01T09:58:49;4.45;;;2.30;;
48685;SDS011;34485;51.536;3.816;2023-08-01T10:01:17;5.28;;;2.58;;
48685;SDS011;34485;51.536;3.816;2023-08-01T10:03:45;4.30;;;2.63;;
48685;SDS011;34485;51.536;3.816;2023-08-01T10:06:19;7.53;;;2.93;;
48685;SDS011;34485;51.536;3.816;2023-08-01T10:08:50;5.82;;;2.92;;
48685;SDS011;34485;51.536;3.816;2023-08-01T10:11:18;4.70;;;3.15;;
48685;SDS011;34485;51.536;3.816;2023-08-01T10:13:45;5.80;;;3.05;;
48685;SDS011;34485;51.536;3.816;2023-08-01T10:16:11;4.88;;;2.40;;
48685;SDS011;34485;51.536;3.816;2023-08-01T10:18:37;5.67;;;2.90;;
48685;SDS011;34485;51.536;3.816;2023-08-01T10:21:05;6.75;;;2.90;;
48685;SDS011;34485;51.536;3.816;2023-08-01T10:23:32;9.88;;;3.97;;
48685;SDS011;34485;51.536;3.816;2023-08-01T10:26:00;8.05;;;3.20;;
48685;SDS011;34485;51.536;3.816;2023-08-01T10:28:32;5.57;;;2.30;;
48685;SDS011;34485;51.536;3.816;2023-08-01T10:31:14;4.03;;;2.40;;
48685;SDS011;34485;51.536;3.816;2023-08-01T10:33:42;5.07;;;2.55;;
48685;SDS011;34485;51.536;3.816;2023-08-01T10:36:18;4.78;;;2.15;;
48685;SDS011;34485;51.536;3.816;2023-08-01T10:38:46;6.90;;;3.05;;
48685;SDS011;34485;51.536;3.816;2023-08-01T10:46:51;6.63;;;2.85;;
48685;SDS011;34485;51.536;3.816;2023-08-01T10:49:17;6.47;;;2.67;;
48685;SDS011;34485;51.536;3.816;2023-08-01T10:51:44;9.60;;;3.00;;
48685;SDS011;34485;51.536;3.816;2023-08-01T10:56:46;5.27;;;2.47;;
48685;SDS011;34485;51.536;3.816;2023-08-01T10:59:14;6.50;;;2.33;;
48685;SDS011;34485;51.536;3.816;2023-08-01T11:01:58;2.55;;;2.00;;
48685;SDS011;34485;51.536;3.816;2023-08-01T11:04:25;5.97;;;2.50;;
48685;SDS011;34485;51.536;3.816;2023-08-01T11:06:52;8.77;;;3.03;;
48685;SDS011;34485;51.536;3.816;2023-08-01T11:09:21;5.40;;;2.67;;
48685;SDS011;34485;51.536;3.816;2023-08-01T11:11:52;9.02;;;2.78;;
48685;SDS011;34485;51.536;3.816;2023-08-01T11:14:23;6.28;;;2.83;;
48685;SDS011;34485;51.536;3.816;2023-08-01T11:16:51;8.33;;;2.87;;
48685;SDS011;34485;51.536;3.816;2023-08-01T11:21:51;6.35;;;2.67;;
48685;SDS011;34485;51.536;3.816;2023-08-01T11:24:17;8.77;;;3.42;;
48685;SDS011;34485;51.536;3.816;2023-08-01T11:26:44;6.60;;;2.65;;
48685;SDS011;34485;51.536;3.816;2023-08-01T11:29:11;6.33;;;2.63;;
48685;SDS011;34485;51.536;3.816;2023-08-01T11:31:38;6.18;;;2.80;;
48685;SDS011;34485;51.536;3.816;2023-08-01T11:34:04;5.63;;;2.78;;
48685;SDS011;34485;51.536;3.816;2023-08-01T11:36:30;6.30;;;2.90;;
48685;SDS011;34485;51.536;3.816;2023-08-01T11:38:57;6.47;;;2.90;;
48685;SDS011;34485;51.536;3.816;2023-08-01T11:41:24;9.90;;;2.80;;
48685;SDS011;34485;51.536;3.816;2023-08-01T11:43:53;7.85;;;2.78;;
48685;SDS011;34485;51.536;3.816;2023-08-01T11:46:22;4.93;;;2.80;;
48685;SDS011;34485;51.536;3.816;2023-08-01T11:48:48;7.68;;;3.15;;
48685;SDS011;34485;51.536;3.816;2023-08-01T11:51:16;5.20;;;2.63;;
48685;SDS011;34485;51.536;3.816;2023-08-01T11:53:42;5.68;;;2.58;;
48685;SDS011;34485;51.536;3.816;2023-08-01T11:56:08;9.20;;;2.63;;
48685;SDS011;34485;51.536;3.816;2023-08-01T11:58:44;6.17;;;2.57;;
48685;SDS011;34485;51.536;3.816;2023-08-01T12:01:13;6.72;;;2.60;;
48685;SDS011;34485;51.536;3.816;2023-08-01T12:03:43;5.40;;;2.60;;
48685;SDS011;34485;51.536;3.816;2023-08-01T12:06:10;4.07;;;2.63;;
48685;SDS011;34485;51.536;3.816;2023-08-01T12:08:37;7.00;;;2.33;;
48685;SDS011;34485;51.536;3.816;2023-08-01T12:11:03;3.97;;;2.40;;
48685;SDS011;34485;51.536;3.816;2023-08-01T12:13:29;8.20;;;2.40;;
48685;SDS011;34485;51.536;3.816;2023-08-01T12:15:56;3.30;;;2.27;;
48685;SDS011;34485;51.536;3.816;2023-08-01T12:18:26;6.93;;;2.05;;
48685;SDS011;34485;51.536;3.816;2023-08-01T12:20:53;6.07;;;2.28;;
48685;SDS011;34485;51.536;3.816;2023-08-01T12:23:19;4.82;;;2.00;;
48685;SDS011;34485;51.536;3.816;2023-08-01T12:25:46;7.40;;;2.20;;
48685;SDS011;34485;51.536;3.816;2023-08-01T12:28:15;9.57;;;2.23;;
48685;SDS011;34485;51.536;3.816;2023-08-01T12:30:41;5.60;;;2.75;;
48685;SDS011;34485;51.536;3.816;2023-08-01T12:33:07;5.45;;;2.10;;
48685;SDS011;34485;51.536;3.816;2023-08-01T12:35:33;5.15;;;2.20;;
48685;SDS011;34485;51.536;3.816;2023-08-01T12:37:59;4.47;;;1.80;;
48685;SDS011;34485;51.536;3.816;2023-08-01T12:40:24;4.18;;;1.92;;
48685;SDS011;34485;51.536;3.816;2023-08-01T12:42:50;7.43;;;2.30;;
48685;SDS011;34485;51.536;3.816;2023-08-01T12:45:16;4.27;;;1.97;;
48685;SDS011;34485;51.536;3.816;2023-08-01T12:47:41;4.32;;;2.03;;
48685;SDS011;34485;51.536;3.816;2023-08-01T12:50:07;3.90;;;1.93;;
48685;SDS011;34485;51.536;3.816;2023-08-01T12:52:33;3.88;;;2.30;;
48685;SDS011;34485;51.536;3.816;2023-08-01T12:54:59;4.00;;;1.92;;
48685;SDS011;34485;51.536;3.816;2023-08-01T12:57:25;6.93;;;2.20;;
48685;SDS011;34485;51.536;3.816;2023-08-01T12:59:50;4.43;;;2.17;;
48685;SDS011;34485;51.536;3.816;2023-08-01T13:02:16;3.63;;;1.93;;
48685;SDS011;34485;51.536;3.816;2023-08-01T13:04:42;6.72;;;2.10;;
48685;SDS011;34485;51.536;3.816;2023-08-01T13:07:07;5.37;;;2.37;;
48685;SDS011;34485;51.536;3.816;2023-08-01T13:09:33;6.00;;;2.25;;
48685;SDS011;34485;51.536;3.816;2023-08-01T13:11:59;4.83;;;2.40;;
48685;SDS011;34485;51.536;3.816;2023-08-01T13:14:25;4.05;;;1.83;;
48685;SDS011;34485;51.536;3.816;2023-08-01T13:16:51;2.22;;;1.95;;
48685;SDS011;34485;51.536;3.816;2023-08-01T13:19:17;7.20;;;2.10;;
48685;SDS011;34485;51.536;3.816;2023-08-01T13:21:43;7.45;;;2.70;;
48685;SDS011;34485;51.536;3.816;2023-08-01T13:24:08;3.97;;;2.13;;
48685;SDS011;34485;51.536;3.816;2023-08-01T13:26:34;7.17;;;2.87;;
48685;SDS011;34485;51.536;3.816;2023-08-01T13:29:01;13.38;;;3.08;;
48685;SDS011;34485;51.536;3.816;2023-08-01T13:31:26;7.05;;;1.90;;
48685;SDS011;34485;51.536;3.816;2023-08-01T13:33:53;7.27;;;2.60;;
48685;SDS011;34485;51.536;3.816;2023-08-01T13:36:19;5.93;;;1.98;;
48685;SDS011;34485;51.536;3.816;2023-08-01T13:38:45;8.52;;;2.33;;
48685;SDS011;34485;51.536;3.816;2023-08-01T13:41:11;2.43;;;1.83;;
48685;SDS011;34485;51.536;3.816;2023-08-01T13:43:36;3.20;;;1.90;;
48685;SDS011;34485;51.536;3.816;2023-08-01T13:46:15;6.20;;;2.40;;
48685;SDS011;34485;51.536;3.816;2023-08-01T13:48:42;9.68;;;2.65;;
48685;SDS011;34485;51.536;3.816;2023-08-01T13:51:08;3.97;;;2.10;;
48685;SDS011;34485;51.536;3.816;2023-08-01T13:53:34;5.53;;;2.03;;
48685;SDS011;34485;51.536;3.816;2023-08-01T13:56:04;8.90;;;2.75;;
48685;SDS011;34485;51.536;3.816;2023-08-01T13:58:29;4.93;;;2.25;;
48685;SDS011;34485;51.536;3.816;2023-08-01T14:00:55;8.13;;;2.53;;
48685;SDS011;34485;51.536;3.816;2023-08-01T14:03:26;8.60;;;2.30;;
48685;SDS011;34485;51.536;3.816;2023-08-01T14:05:51;4.97;;;2.33;;
48685;SDS011;34485;51.536;3.816;2023-08-01T14:08:17;4.53;;;2.37;;
48685;SDS011;34485;51.536;3.816;2023-08-01T14:10:42;4.65;;;2.10;;
48685;SDS011;34485;51.536;3.816;2023-08-01T14:13:08;6.23;;;2.10;;
48685;SDS011;34485;51.536;3.816;2023-08-01T14:15:33;4.93;;;2.33;;
48685;SDS011;34485;51.536;3.816;2023-08-01T14:17:59;5.50;;;2.67;;
48685;SDS011;34485;51.536;3.816;2023-08-01T14:20:25;3.43;;;2.43;;
48685;SDS011;34485;51.536;3.816;2023-08-01T14:22:50;7.60;;;2.80;;
48685;SDS011;34485;51.536;3.816;2023-08-01T14:25:16;6.50;;;2.50;;
48685;SDS011;34485;51.536;3.816;2023-08-01T14:27:41;5.13;;;2.20;;
48685;SDS011;34485;51.536;3.816;2023-08-01T14:30:07;4.97;;;2.45;;
48685;SDS011;34485;51.536;3.816;2023-08-01T14:32:33;7.37;;;2.10;;
48685;SDS011;34485;51.536;3.816;2023-08-01T14:35:02;6.22;;;2.13;;
48685;SDS011;34485;51.536;3.816;2023-08-01T14:37:27;7.43;;;2.93;;
48685;SDS011;34485;51.536;3.816;2023-08-01T14:39:54;6.27;;;2.47;;
48685;SDS011;34485;51.536;3.816;2023-08-01T14:42:21;7.28;;;2.50;;
48685;SDS011;34485;51.536;3.816;2023-08-01T14:44:53;5.90;;;2.33;;
48685;SDS011;34485;51.536;3.816;2023-08-01T14:47:19;4.22;;;1.80;;
48685;SDS011;34485;51.536;3.816;2023-08-01T14:49:45;11.10;;;3.23;;
48685;SDS011;34485;51.536;3.816;2023-08-01T14:52:11;3.90;;;2.10;;